Time;durP1;ratioP1;P1;durP2;ratioP2;P2;SDS_P1;SDS_P2;PMS_P1;PMS_P2;Temp;Humidity;BMP_temperature;BMP_pressure;BME280_temperature;BME280_humidity;BME280_pressure;Samples;Min_cycle;Max_cycle;Signal;HPM_P1;HPM_P2
2022/01/31 00:01:20;;;;;;;4.68;1.13;;;28.30;96.30;;;;;;5034346;28;20087;-73
2022/01/31 00:03:47;;;;;;;3.38;0.77;;;28.30;96.30;;;;;;5034122;28;20022;-72
2022/01/31 00:06:14;;;;;;;6.05;1.20;;;28.30;96.20;;;;;;5034535;28;20021;-68
2022/01/31 00:08:42;;;;;;;4.95;1.08;;;28.40;96.50;;;;;;5034622;28;20481;-71
2022/01/31 00:11:11;;;;;;;6.65;1.40;;;28.40;96.20;;;;;;5034141;28;20042;-71
2022/01/31 00:13:43;;;;;;;4.07;1.33;;;28.50;96.40;;;;;;5034112;28;20028;-72
2022/01/31 00:16:15;;;;;;;7.93;2.55;;;28.50;96.20;;;;;;5033850;28;20036;-72
2022/01/31 00:18:43;;;;;;;6.65;2.17;;;28.50;95.80;;;;;;5034170;28;20029;-71
2022/01/31 00:21:10;;;;;;;5.90;1.38;;;28.30;96.60;;;;;;5033415;28;20374;-73
2022/01/31 00:23:37;;;;;;;7.10;2.10;;;28.30;96.50;;;;;;5033020;28;20025;-73
2022/01/31 00:26:05;;;;;;;7.38;1.92;;;28.30;96.70;;;;;;5033629;28;20371;-71
2022/01/31 00:28:32;;;;;;;5.35;1.35;;;28.30;96.80;;;;;;5032279;28;20394;-72
2022/01/31 00:30:59;;;;;;;5.32;1.50;;;28.30;96.40;;;;;;5033429;28;20026;-73
2022/01/31 00:33:27;;;;;;;6.15;2.03;;;28.30;96.10;;;;;;5032392;28;20064;-74
2022/01/31 00:35:54;;;;;;;5.78;2.33;;;28.40;96.00;;;;;;5033171;28;20632;-72
2022/01/31 00:38:21;;;;;;;4.97;1.48;;;28.30;95.90;;;;;;5032023;28;20385;-73
2022/01/31 00:40:48;;;;;;;5.60;2.00;;;28.20;96.10;;;;;;5031866;28;20440;-73
2022/01/31 00:43:18;;;;;;;6.47;2.20;;;28.20;96.60;;;;;;5031530;28;20076;-73
2022/01/31 00:46:38;;;;;;;8.90;2.20;;;28.30;96.40;;;;;;5033158;28;20029;-71
2022/01/31 00:48:40;;;;;;;6.65;1.90;;;28.30;96.40;;;;;;5029029;28;20478;-75
2022/01/31 00:51:07;;;;;;;11.85;2.33;;;28.50;96.40;;;;;;5033333;28;20021;-76
2022/01/31 00:53:35;;;;;;;9.77;2.42;;;28.90;96.50;;;;;;5033671;28;20057;-70
2022/01/31 00:56:02;;;;;;;10.63;2.63;;;29.20;96.10;;;;;;5033164;28;20040;-77
2022/01/31 00:58:29;;;;;;;8.80;2.08;;;29.30;96.00;;;;;;5033959;28;20433;-74
2022/01/31 01:00:59;;;;;;;10.55;1.55;;;29.20;95.80;;;;;;5033496;28;20033;-71
2022/01/31 01:03:27;;;;;;;10.40;1.80;;;29.20;95.60;;;;;;5033432;28;20026;-73
2022/01/31 01:05:54;;;;;;;6.68;2.22;;;29.20;96.00;;;;;;5033224;28;20021;-72
2022/01/31 01:08:21;;;;;;;8.45;2.40;;;29.10;96.10;;;;;;5034539;28;20022;-77
2022/01/31 01:10:49;;;;;;;7.20;2.00;;;29.10;96.10;;;;;;5034793;28;20061;-68
2022/01/31 01:13:16;;;;;;;7.63;2.15;;;29.10;95.90;;;;;;5033200;28;20025;-73
2022/01/31 01:15:44;;;;;;;10.95;3.13;;;29.20;96.10;;;;;;5031695;28;20036;-74
2022/01/31 01:18:12;;;;;;;22.45;4.38;;;29.20;95.90;;;;;;5032836;28;20025;-69
2022/01/31 01:20:39;;;;;;;14.88;2.67;;;29.10;95.90;;;;;;5033141;28;20021;-74
2022/01/31 01:23:06;;;;;;;8.95;1.90;;;29.10;96.00;;;;;;5031773;28;20044;-75
2022/01/31 01:25:34;;;;;;;8.10;1.88;;;29.00;96.10;;;;;;5032944;28;20024;-75
2022/01/31 01:28:01;;;;;;;6.00;1.20;;;29.00;95.80;;;;;;5032576;28;20017;-75
2022/01/31 01:30:28;;;;;;;7.65;1.75;;;29.00;95.80;;;;;;5033032;28;20021;-72
2022/01/31 01:33:04;;;;;;;6.25;1.50;;;28.90;96.10;;;;;;5032836;28;20028;-76
2022/01/31 01:35:34;;;;;;;7.47;1.92;;;28.80;96.40;;;;;;5032756;28;20076;-74
2022/01/31 01:38:06;;;;;;;7.22;1.70;;;29.20;96.10;;;;;;5032114;28;20107;-74
2022/01/31 01:40:39;;;;;;;7.47;1.80;;;29.70;95.60;;;;;;5032948;28;20021;-75
2022/01/31 01:43:08;;;;;;;7.00;1.55;;;30.10;95.50;;;;;;5030363;28;20065;-72
2022/01/31 01:45:36;;;;;;;6.00;1.50;;;30.40;94.60;;;;;;5032749;28;20040;-72
2022/01/31 01:48:07;;;;;;;7.35;1.15;;;30.80;94.00;;;;;;5031702;28;20442;-72
2022/01/31 01:50:36;;;;;;;6.90;1.00;;;31.00;93.60;;;;;;5032373;28;20104;-72
2022/01/31 01:53:05;;;;;;;5.72;1.08;;;31.10;92.80;;;;;;5027447;28;20123;-75
2022/01/31 01:55:33;;;;;;;4.10;1.02;;;30.80;92.90;;;;;;5030385;28;20029;-72
2022/01/31 01:58:00;;;;;;;4.55;1.02;;;30.90;93.20;;;;;;5032302;28;20029;-74
2022/01/31 02:00:43;;;;;;;5.95;1.23;;;31.10;93.10;;;;;;5031939;28;20049;-76
2022/01/31 02:03:10;;;;;;;5.90;1.25;;;31.10;92.80;;;;;;5031916;28;20462;-72
2022/01/31 02:05:37;;;;;;;3.45;1.17;;;31.00;93.00;;;;;;5032608;28;20026;-74
2022/01/31 02:08:05;;;;;;;6.43;1.30;;;30.60;93.10;;;;;;5032432;28;20021;-72
2022/01/31 02:10:32;;;;;;;9.20;1.52;;;30.40;93.70;;;;;;5030742;28;20042;-75
2022/01/31 02:13:05;;;;;;;7.20;1.67;;;30.40;93.40;;;;;;5030324;28;20036;-73
2022/01/31 02:15:33;;;;;;;10.45;2.28;;;30.30;93.90;;;;;;5031903;28;20470;-72
2022/01/31 02:18:01;;;;;;;8.30;1.63;;;30.20;93.90;;;;;;5028377;28;20466;-73
2022/01/31 02:20:29;;;;;;;6.45;1.63;;;30.00;93.90;;;;;;5031992;28;20033;-72
2022/01/31 02:22:58;;;;;;;9.40;1.88;;;29.70;94.50;;;;;;5031548;28;20076;-72
2022/01/31 02:25:25;;;;;;;7.43;0.98;;;29.80;94.70;;;;;;5031392;28;20025;-72
2022/01/31 02:27:52;;;;;;;4.93;1.00;;;30.00;94.10;;;;;;5030335;28;20482;-75
2022/01/31 02:30:19;;;;;;;3.13;1.10;;;30.10;93.80;;;;;;5028143;28;20431;-74
2022/01/31 02:32:47;;;;;;;4.82;1.30;;;30.10;93.90;;;;;;5025896;28;20033;-71
2022/01/31 02:35:15;;;;;;;7.35;1.50;;;30.00;93.70;;;;;;5031537;28;20025;-75
2022/01/31 02:37:42;;;;;;;5.45;1.15;;;29.90;94.20;;;;;;5031813;28;20048;-74
2022/01/31 02:40:10;;;;;;;5.18;1.33;;;29.70;94.20;;;;;;5031537;28;20067;-68
2022/01/31 02:42:37;;;;;;;4.43;0.98;;;29.80;94.20;;;;;;5032013;28;20083;-74
2022/01/31 02:45:05;;;;;;;6.78;1.48;;;30.10;94.40;;;;;;5031855;28;20057;-72
2022/01/31 02:47:38;;;;;;;8.57;1.65;;;30.70;94.20;;;;;;5031796;28;20022;-72
2022/01/31 02:50:08;;;;;;;4.60;1.10;;;31.30;92.90;;;;;;5031637;28;20462;-70
2022/01/31 02:52:37;;;;;;;5.30;1.02;;;31.70;92.40;;;;;;5031135;28;20060;-72
2022/01/31 02:55:05;;;;;;;6.55;1.20;;;31.90;92.20;;;;;;5030731;28;20037;-74
2022/01/31 02:57:33;;;;;;;7.30;1.33;;;32.30;91.30;;;;;;5030390;28;20434;-72
2022/01/31 03:00:00;;;;;;;7.68;1.70;;;32.20;91.20;;;;;;5030173;28;20028;-71
2022/01/31 03:02:27;;;;;;;4.32;1.10;;;32.10;90.90;;;;;;5030442;28;20035;-69
2022/01/31 03:04:55;;;;;;;5.70;1.30;;;32.40;91.40;;;;;;5031152;28;20022;-72
2022/01/31 03:07:22;;;;;;;6.55;1.55;;;32.80;91.00;;;;;;5031426;28;20078;-73
2022/01/31 03:09:49;;;;;;;5.03;1.25;;;33.10;90.40;;;;;;5031111;28;20045;-73
2022/01/31 03:12:16;;;;;;;4.25;1.25;;;33.10;89.90;;;;;;5030777;28;20060;-71
2022/01/31 03:14:44;;;;;;;5.10;1.10;;;32.50;90.40;;;;;;5031419;28;20515;-73
2022/01/31 03:17:11;;;;;;;6.53;1.55;;;32.40;91.00;;;;;;5031155;28;20071;-72
2022/01/31 03:19:40;;;;;;;5.65;1.10;;;32.90;90.30;;;;;;5031009;28;20450;-71
2022/01/31 03:22:08;;;;;;;8.52;1.17;;;33.50;88.50;;;;;;5030754;28;20021;-73
2022/01/31 03:24:36;;;;;;;8.85;2.03;;;33.70;88.60;;;;;;5031263;28;20024;-74
2022/01/31 03:27:04;;;;;;;3.20;0.98;;;33.20;88.10;;;;;;5030714;28;20028;-75
2022/01/31 03:29:31;;;;;;;7.47;1.70;;;33.10;89.30;;;;;;5030323;28;20393;-70
2022/01/31 03:31:58;;;;;;;5.15;1.40;;;33.80;88.20;;;;;;5031106;28;20052;-73
2022/01/31 03:34:26;;;;;;;6.47;1.65;;;34.40;86.00;;;;;;5031086;28;20030;-73
2022/01/31 03:36:53;;;;;;;3.90;1.00;;;35.00;85.10;;;;;;5031585;28;20120;-74
2022/01/31 03:39:21;;;;;;;5.65;1.48;;;35.20;84.50;;;;;;5031711;28;20018;-70
2022/01/31 03:41:48;;;;;;;4.30;1.05;;;35.20;82.50;;;;;;5031088;28;20029;-73
2022/01/31 03:44:15;;;;;;;7.22;1.15;;;35.00;82.20;;;;;;5030324;28;20021;-70
2022/01/31 03:46:43;;;;;;;4.43;0.90;;;35.50;82.80;;;;;;5031474;28;20033;-74
2022/01/31 03:49:10;;;;;;;5.18;1.05;;;35.70;81.10;;;;;;5031538;28;20096;-74
2022/01/31 03:51:38;;;;;;;4.57;0.98;;;35.60;81.10;;;;;;5031571;28;20105;-74
2022/01/31 03:54:05;;;;;;;4.70;0.95;;;35.30;82.30;;;;;;5030205;28;20040;-77
2022/01/31 03:56:33;;;;;;;4.85;1.10;;;35.90;80.70;;;;;;5031829;28;20034;-70
2022/01/31 03:59:00;;;;;;;4.60;1.25;;;36.30;79.40;;;;;;5031067;28;20022;-73
2022/01/31 04:01:28;;;;;;;4.88;1.13;;;36.70;79.30;;;;;;5030899;28;20029;-72
2022/01/31 04:03:56;;;;;;;2.38;0.90;;;36.60;78.70;;;;;;5030307;28;20348;-72
2022/01/31 04:06:24;;;;;;;4.47;1.10;;;37.10;77.70;;;;;;5022819;28;20048;-73
2022/01/31 04:08:51;;;;;;;4.35;0.93;;;37.40;76.40;;;;;;5034170;28;20025;-72
2022/01/31 04:11:19;;;;;;;3.65;1.17;;;36.70;78.00;;;;;;5034155;28;20044;-77
2022/01/31 04:13:46;;;;;;;5.65;1.38;;;36.60;75.90;;;;;;5033945;28;20080;-76
2022/01/31 04:16:13;;;;;;;3.10;1.30;;;36.80;76.40;;;;;;5034570;28;20128;-75
2022/01/31 04:18:41;;;;;;;4.75;1.42;;;37.10;75.10;;;;;;5034678;28;20021;-74
2022/01/31 04:21:09;;;;;;;5.05;1.80;;;36.80;76.00;;;;;;5034496;28;20049;-79
2022/01/31 04:23:37;;;;;;;4.47;1.55;;;37.10;75.40;;;;;;5035502;28;20104;-72
2022/01/31 04:26:11;;;;;;;4.97;1.45;;;36.70;76.20;;;;;;5034127;28;20060;-74
2022/01/31 04:28:45;;;;;;;3.28;1.10;;;36.00;77.40;;;;;;5034564;28;20021;-74
2022/01/31 04:33:50;;;;;;;3.95;1.40;;;35.10;79.90;;;;;;5033963;28;20083;-75
2022/01/31 04:36:18;;;;;;;5.03;0.95;;;35.20;80.30;;;;;;5032587;28;20436;-69
2022/01/31 04:38:50;;;;;;;2.95;1.05;;;35.90;78.90;;;;;;5033771;28;20022;-71
2022/01/31 04:41:17;;;;;;;5.43;0.85;;;36.60;77.90;;;;;;5033335;28;20030;-77
2022/01/31 04:43:47;;;;;;;4.43;1.25;;;37.00;76.90;;;;;;5034312;28;20052;-73
2022/01/31 04:46:14;;;;;;;6.22;1.45;;;37.40;77.10;;;;;;5034427;28;20551;-71
2022/01/31 04:48:45;;;;;;;4.53;1.05;;;37.30;76.80;;;;;;5034278;28;20474;-73
2022/01/31 04:51:13;;;;;;;4.33;1.00;;;37.60;76.20;;;;;;5033929;28;20483;-75
2022/01/31 04:53:42;;;;;;;5.28;1.00;;;38.00;75.30;;;;;;5033837;28;20341;-76
2022/01/31 04:56:10;;;;;;;2.40;0.75;;;38.40;74.20;;;;;;5033186;28;20034;-72
2022/01/31 04:58:39;;;;;;;4.15;1.02;;;38.80;73.30;;;;;;5033263;28;20608;-73
2022/01/31 05:01:08;;;;;;;7.32;1.02;;;38.10;73.80;;;;;;5032925;28;20021;-73
2022/01/31 05:03:35;;;;;;;3.88;1.00;;;37.60;75.60;;;;;;5032700;28;20080;-72
2022/01/31 05:06:03;;;;;;;3.88;1.10;;;37.90;74.90;;;;;;5032528;28;20026;-77
2022/01/31 05:08:30;;;;;;;3.22;0.82;;;38.20;74.60;;;;;;5032327;28;20476;-76
2022/01/31 05:10:58;;;;;;;2.88;0.93;;;38.80;73.00;;;;;;5031877;28;20513;-76
2022/01/31 05:13:25;;;;;;;2.53;1.02;;;38.70;74.20;;;;;;5031532;28;20109;-77
2022/01/31 05:15:53;;;;;;;3.53;1.33;;;38.70;72.50;;;;;;5032276;28;20116;-72
2022/01/31 05:18:21;;;;;;;3.00;1.35;;;37.60;73.50;;;;;;5029883;28;20381;-74
2022/01/31 05:20:48;;;;;;;4.10;1.48;;;37.70;73.20;;;;;;5031820;28;20025;-76
2022/01/31 05:23:16;;;;;;;4.43;0.90;;;37.60;73.70;;;;;;5033224;28;20018;-75
2022/01/31 05:25:43;;;;;;;4.13;2.20;;;37.40;74.10;;;;;;5027996;28;20053;-76
2022/01/31 05:28:11;;;;;;;4.20;1.15;;;37.50;73.40;;;;;;5029128;28;20052;-73
2022/01/31 05:30:39;;;;;;;3.22;1.42;;;37.00;74.30;;;;;;5032783;28;20104;-74
2022/01/31 05:33:07;;;;;;;4.20;0.88;;;37.20;74.30;;;;;;5030547;28;20036;-76
2022/01/31 05:35:34;;;;;;;6.03;1.20;;;37.50;74.00;;;;;;5032165;28;20033;-73
2022/01/31 05:38:01;;;;;;;3.75;0.85;;;37.80;73.70;;;;;;5032093;28;20021;-74
2022/01/31 05:40:29;;;;;;;3.50;0.80;;;38.20;73.00;;;;;;5032087;28;20029;-75
2022/01/31 05:42:56;;;;;;;2.67;0.75;;;38.50;71.30;;;;;;5031189;28;20096;-75
2022/01/31 05:45:24;;;;;;;2.42;0.57;;;38.10;72.20;;;;;;5031541;28;20021;-75
2022/01/31 05:47:51;;;;;;;3.92;1.55;;;37.40;73.10;;;;;;5031399;28;20497;-75
2022/01/31 05:50:19;;;;;;;1.67;0.55;;;36.60;75.20;;;;;;5031614;28;20486;-74
2022/01/31 05:52:46;;;;;;;2.10;0.70;;;36.50;75.40;;;;;;5031341;28;20068;-73
2022/01/31 05:55:14;;;;;;;1.05;0.40;;;36.50;74.50;;;;;;5031766;28;20026;-76
2022/01/31 05:57:43;;;;;;;1.65;0.55;;;36.40;74.50;;;;;;5031821;28;20025;-76
2022/01/31 06:00:11;;;;;;;3.55;0.50;;;36.70;74.60;;;;;;5031866;28;20374;-76
2022/01/31 06:02:39;;;;;;;2.95;0.40;;;36.60;75.00;;;;;;5031485;28;20024;-73
2022/01/31 06:05:07;;;;;;;2.42;0.47;;;36.40;74.90;;;;;;5031054;28;20033;-74
2022/01/31 06:07:34;;;;;;;1.75;0.60;;;36.20;75.50;;;;;;5031564;28;20026;-76
2022/01/31 06:10:01;;;;;;;1.33;0.50;;;35.50;77.10;;;;;;5032024;28;20041;-73
2022/01/31 06:12:29;;;;;;;1.77;0.43;;;35.30;78.70;;;;;;5030796;28;20029;-75
2022/01/31 06:14:57;;;;;;;1.67;0.60;;;35.30;79.80;;;;;;5031674;28;20026;-71
2022/01/31 06:17:24;;;;;;;2.03;0.55;;;35.50;79.10;;;;;;5030876;28;20029;-75
2022/01/31 06:19:51;;;;;;;2.42;0.63;;;35.70;76.60;;;;;;5031455;28;20040;-74
2022/01/31 06:22:18;;;;;;;1.30;0.40;;;35.20;79.10;;;;;;5031408;28;20471;-73
2022/01/31 06:24:46;;;;;;;1.63;0.38;;;34.50;80.30;;;;;;5031570;28;20021;-73
2022/01/31 06:27:14;;;;;;;1.52;0.32;;;34.20;81.60;;;;;;5030443;28;20072;-71
2022/01/31 06:29:41;;;;;;;1.90;0.50;;;34.00;81.10;;;;;;5039794;28;20078;-74
2022/01/31 06:32:09;;;;;;;2.10;0.50;;;33.20;83.70;;;;;;5051961;28;20027;-75
2022/01/31 06:34:36;;;;;;;2.15;0.40;;;33.10;84.40;;;;;;5052022;28;20048;-74
2022/01/31 06:37:04;;;;;;;1.50;0.40;;;33.00;84.20;;;;;;5020610;28;20029;-74
2022/01/31 06:39:32;;;;;;;3.53;0.82;;;32.80;84.40;;;;;;5031618;28;20485;-71
2022/01/31 06:42:00;;;;;;;2.55;0.65;;;32.80;85.40;;;;;;5030620;28;20041;-73
2022/01/31 06:44:27;;;;;;;2.40;0.50;;;32.40;85.40;;;;;;5031774;28;20075;-74
2022/01/31 06:46:54;;;;;;;1.27;0.40;;;32.40;86.00;;;;;;5031102;28;20067;-73
2022/01/31 06:49:21;;;;;;;3.42;0.70;;;32.10;86.00;;;;;;5031363;28;20100;-72
2022/01/31 06:51:49;;;;;;;1.42;0.50;;;31.50;86.90;;;;;;5031757;28;20025;-73
2022/01/31 06:54:16;;;;;;;4.45;1.98;;;31.00;88.40;;;;;;5031699;28;20021;-76
2022/01/31 06:56:45;;;;;;;1.30;0.50;;;30.90;90.00;;;;;;5031412;28;20033;-74
2022/01/31 06:59:12;;;;;;;2.72;0.47;;;31.10;89.10;;;;;;5031384;28;20391;-75
2022/01/31 07:01:39;;;;;;;1.73;0.90;;;31.20;89.60;;;;;;5033479;28;20112;-74
2022/01/31 07:04:11;;;;;;;2.58;0.80;;;31.00;90.00;;;;;;5032804;28;20033;-74
2022/01/31 07:06:38;;;;;;;3.25;0.73;;;30.60;90.50;;;;;;5031698;28;20021;-74
2022/01/31 07:09:06;;;;;;;1.98;0.50;;;30.30;91.40;;;;;;5031794;28;20072;-75
2022/01/31 07:11:40;;;;;;;2.03;0.50;;;30.00;91.30;;;;;;5030431;28;20050;-74
2022/01/31 07:14:29;;;;;;;3.55;0.60;;;30.00;91.60;;;;;;5029765;28;20128;-73
2022/01/31 07:16:56;;;;;;;3.08;0.68;;;29.90;91.80;;;;;;5030196;28;20037;-75
2022/01/31 07:19:27;;;;;;;1.45;0.50;;;29.80;92.00;;;;;;5029245;28;20076;-74
2022/01/31 07:21:55;;;;;;;2.28;0.60;;;29.80;92.00;;;;;;5031396;28;20063;-73
2022/01/31 07:24:42;;;;;;;2.47;0.77;;;29.90;92.20;;;;;;5031997;28;20082;-74
2022/01/31 07:27:09;;;;;;;2.20;0.60;;;30.00;92.00;;;;;;5023153;28;20044;-73
2022/01/31 07:29:37;;;;;;;9.65;2.15;;;29.80;92.30;;;;;;5028454;28;20076;-75
2022/01/31 07:32:04;;;;;;;2.58;0.60;;;29.80;92.40;;;;;;5029577;28;20470;-74
2022/01/31 07:34:32;;;;;;;4.13;0.73;;;29.70;92.50;;;;;;5028984;28;20471;-74
2022/01/31 07:36:59;;;;;;;2.15;0.77;;;29.30;92.80;;;;;;5031516;28;20167;-73
2022/01/31 07:39:27;;;;;;;1.95;0.60;;;29.00;93.40;;;;;;5031959;28;20045;-75
2022/01/31 07:41:54;;;;;;;2.03;0.70;;;28.70;93.70;;;;;;5033895;28;20032;-74
2022/01/31 07:44:22;;;;;;;3.97;1.20;;;28.50;93.70;;;;;;5036046;28;20018;-75
2022/01/31 07:46:49;;;;;;;1.95;0.75;;;28.40;94.20;;;;;;5035799;28;20064;-74
2022/01/31 07:49:16;;;;;;;4.18;1.73;;;28.20;94.50;;;;;;5036167;28;20123;-73
2022/01/31 07:51:44;;;;;;;2.80;1.05;;;28.30;94.70;;;;;;5035557;28;20021;-75
2022/01/31 07:54:11;;;;;;;3.20;0.70;;;28.30;95.00;;;;;;5035075;28;20028;-74
2022/01/31 07:56:38;;;;;;;4.20;1.02;;;28.20;95.20;;;;;;5036275;28;20040;-73
2022/01/31 07:59:06;;;;;;;4.20;1.10;;;28.20;95.70;;;;;;5035787;28;20024;-76
2022/01/31 08:01:33;;;;;;;5.95;1.35;;;28.20;95.70;;;;;;5035538;28;20021;-73
2022/01/31 08:04:00;;;;;;;4.55;1.38;;;27.90;96.30;;;;;;5034613;28;20588;-74
2022/01/31 08:06:28;;;;;;;3.67;1.27;;;27.80;96.90;;;;;;5035069;28;20053;-74
2022/01/31 08:08:55;;;;;;;4.43;1.25;;;27.70;97.10;;;;;;5033918;28;20025;-74
2022/01/31 08:11:28;;;;;;;5.07;1.25;;;27.80;97.10;;;;;;5034820;28;20095;-75
2022/01/31 08:14:00;;;;;;;6.97;1.58;;;27.70;97.30;;;;;;5035145;28;20022;-72
2022/01/31 08:16:27;;;;;;;6.97;2.40;;;27.70;97.50;;;;;;5035159;28;20025;-78
2022/01/31 08:18:54;;;;;;;3.95;1.45;;;27.70;97.70;;;;;;5035700;28;20029;-76
2022/01/31 08:21:23;;;;;;;5.35;1.00;;;27.50;97.90;;;;;;5035501;28;20060;-72
2022/01/31 08:23:51;;;;;;;4.53;1.25;;;27.50;98.20;;;;;;5035131;28;20029;-71
2022/01/31 08:26:20;;;;;;;3.58;2.13;;;27.40;98.40;;;;;;5033279;28;20029;-74
2022/01/31 08:28:58;;;;;;;5.03;1.25;;;27.30;98.60;;;;;;5032699;28;20490;-73
2022/01/31 08:36:27;;;;;;;6.65;2.63;;;27.10;99.60;;;;;;5031269;28;20047;-74
2022/01/31 08:38:57;;;;;;;5.53;1.80;;;27.20;99.60;;;;;;5034608;28;20029;-71
2022/01/31 08:41:25;;;;;;;5.60;1.15;;;27.10;99.70;;;;;;5034029;28;20117;-74
2022/01/31 08:43:53;;;;;;;5.93;2.42;;;27.10;99.80;;;;;;5033705;28;20013;-74
2022/01/31 08:46:20;;;;;;;2.67;1.20;;;27.10;99.80;;;;;;5034398;28;20068;-74
2022/01/31 08:48:48;;;;;;;5.25;1.70;;;27.20;99.70;;;;;;5034383;28;20478;-72
2022/01/31 08:51:15;;;;;;;4.00;1.10;;;27.10;99.90;;;;;;5034430;28;20021;-73
2022/01/31 08:53:42;;;;;;;6.20;1.27;;;27.00;99.90;;;;;;5032539;28;20026;-73
2022/01/31 08:56:12;;;;;;;4.10;1.10;;;26.90;99.90;;;;;;5034043;28;20064;-74
2022/01/31 08:58:48;;;;;;;3.95;1.00;;;26.80;99.90;;;;;;5034126;28;20127;-73
2022/01/31 09:01:18;;;;;;;3.67;1.08;;;26.80;99.90;;;;;;5032536;28;20072;-74
2022/01/31 09:06:26;;;;;;;5.00;1.23;;;27.10;99.90;;;;;;5033537;28;20018;-73
2022/01/31 09:08:53;;;;;;;5.78;1.20;;;27.20;99.90;;;;;;5033915;28;20014;-73
2022/01/31 09:11:21;;;;;;;4.70;2.28;;;27.10;99.90;;;;;;5033407;28;20054;-73
2022/01/31 09:13:49;;;;;;;4.60;1.73;;;27.00;99.90;;;;;;5033311;28;20033;-73
2022/01/31 09:16:16;;;;;;;5.07;1.42;;;26.90;99.90;;;;;;5033441;28;20041;-73
2022/01/31 09:18:44;;;;;;;3.70;1.30;;;26.80;99.90;;;;;;5033321;28;20017;-72
2022/01/31 09:21:11;;;;;;;5.47;1.60;;;26.80;99.90;;;;;;5031418;28;20068;-72
2022/01/31 09:23:39;;;;;;;4.35;2.03;;;26.80;99.90;;;;;;5032626;28;20025;-73
2022/01/31 09:26:06;;;;;;;5.65;1.85;;;26.80;99.90;;;;;;5033225;28;20067;-70
2022/01/31 09:28:34;;;;;;;2.40;1.13;;;26.60;99.90;;;;;;5033491;28;20057;-71
2022/01/31 09:31:01;;;;;;;4.03;1.05;;;26.60;99.90;;;;;;5033024;28;20053;-70
2022/01/31 09:33:28;;;;;;;5.30;1.33;;;26.60;99.90;;;;;;5033146;28;20017;-69
2022/01/31 09:35:56;;;;;;;3.60;1.00;;;26.70;99.90;;;;;;5032777;28;20021;-71
2022/01/31 09:38:24;;;;;;;2.75;0.90;;;26.70;99.90;;;;;;5033151;28;20083;-70
2022/01/31 09:40:53;;;;;;;2.13;0.80;;;26.70;99.90;;;;;;5033020;28;20389;-70
2022/01/31 09:48:37;;;;;;;4.53;1.00;;;26.50;99.90;;;;;;5031834;28;20112;-70
2022/01/31 09:51:09;;;;;;;3.80;1.02;;;26.50;99.90;;;;;;5033045;28;20075;-71
2022/01/31 09:53:58;;;;;;;2.38;1.20;;;26.50;99.90;;;;;;5032988;28;20045;-73
2022/01/31 09:56:38;;;;;;;3.17;0.93;;;26.50;99.90;;;;;;5032976;28;20076;-73
2022/01/31 09:59:08;;;;;;;3.92;1.50;;;26.30;99.90;;;;;;5032702;28;20494;-72
2022/01/31 10:01:46;;;;;;;4.22;1.48;;;26.30;99.90;;;;;;5032353;28;20021;-68
2022/01/31 10:04:24;;;;;;;3.60;1.10;;;26.30;99.90;;;;;;5026045;28;20429;-71
2022/01/31 10:06:56;;;;;;;3.38;0.90;;;26.30;99.90;;;;;;5030397;28;20028;-73
2022/01/31 10:09:26;;;;;;;4.40;1.27;;;26.30;99.90;;;;;;5027006;28;20381;-73
2022/01/31 10:12:25;;;;;;;6.30;1.98;;;26.30;99.90;;;;;;5031767;28;20024;-71
2022/01/31 10:18:15;;;;;;;3.67;1.25;;;26.30;99.90;;;;;;5031052;28;20405;-71
2022/01/31 10:20:42;;;;;;;4.45;1.65;;;26.30;99.90;;;;;;5031020;28;20493;-72
2022/01/31 10:23:10;;;;;;;3.45;0.98;;;26.30;99.90;;;;;;5026337;28;20034;-72
2022/01/31 10:25:39;;;;;;;5.30;1.38;;;26.20;99.90;;;;;;5030719;28;20025;-70
2022/01/31 10:28:15;;;;;;;11.70;2.65;;;26.20;99.90;;;;;;5027135;28;20024;-71
2022/01/31 10:30:44;;;;;;;2.70;0.70;;;26.20;99.90;;;;;;5028360;28;20021;-71
2022/01/31 10:33:12;;;;;;;5.63;1.00;;;26.10;99.90;;;;;;5030704;28;20025;-71
2022/01/31 10:35:44;;;;;;;5.25;0.73;;;26.10;99.90;;;;;;5030483;28;20026;-72
2022/01/31 10:38:18;;;;;;;5.68;1.15;;;26.20;99.90;;;;;;5031577;28;20029;-68
2022/01/31 10:52:04;;;;;;;3.42;0.80;;;26.60;99.90;;;;;;5031821;28;20040;-72
2022/01/31 10:57:02;;;;;;;1.65;0.60;;;26.60;99.90;;;;;;5030443;28;20041;-74
2022/01/31 10:59:38;;;;;;;2.65;0.70;;;26.60;99.90;;;;;;5031121;28;20025;-73
2022/01/31 11:02:08;;;;;;;5.25;1.00;;;26.70;99.90;;;;;;5029785;28;20359;-73
2022/01/31 11:04:38;;;;;;;2.55;0.50;;;26.70;99.90;;;;;;5026901;28;20018;-71
2022/01/31 11:07:12;;;;;;;2.10;0.70;;;26.70;99.90;;;;;;5027594;28;20031;-72
2022/01/31 11:09:41;;;;;;;3.65;0.70;;;26.70;99.90;;;;;;5031217;28;20118;-70
2022/01/31 11:12:10;;;;;;;2.58;0.80;;;26.80;99.90;;;;;;5030786;28;20109;-72
2022/01/31 11:14:39;;;;;;;2.22;0.40;;;26.80;99.90;;;;;;5028348;28;20486;-72
2022/01/31 11:17:14;;;;;;;4.18;0.80;;;26.80;99.90;;;;;;5029614;28;20363;-71
2022/01/31 11:19:49;;;;;;;3.92;0.73;;;26.80;99.90;;;;;;5030143;28;20026;-71
2022/01/31 11:22:18;;;;;;;2.95;0.70;;;26.80;99.90;;;;;;5031507;28;20081;-72
2022/01/31 11:24:51;;;;;;;3.33;0.75;;;26.80;99.90;;;;;;5031800;28;20025;-73
2022/01/31 11:27:22;;;;;;;2.95;0.70;;;26.80;99.90;;;;;;5030710;28;20030;-70
2022/01/31 11:29:57;;;;;;;2.43;0.50;;;26.80;99.90;;;;;;5030861;28;20025;-72
2022/01/31 11:32:26;;;;;;;3.17;1.25;;;26.80;99.90;;;;;;5029040;28;20124;-70
2022/01/31 11:34:55;;;;;;;2.63;0.80;;;26.70;99.90;;;;;;5031130;28;20101;-71
2022/01/31 11:37:27;;;;;;;3.80;0.55;;;26.60;99.90;;;;;;5031364;28;20563;-71
2022/01/31 11:40:01;;;;;;;3.63;1.42;;;26.40;99.90;;;;;;5031513;28;20032;-69
2022/01/31 11:42:29;;;;;;;1.80;0.60;;;26.40;99.90;;;;;;5031338;28;20026;-72
2022/01/31 11:45:15;;;;;;;1.90;0.60;;;26.30;99.90;;;;;;5031445;28;20022;-69
2022/01/31 11:47:46;;;;;;;4.68;0.60;;;26.30;99.90;;;;;;5031303;28;20044;-72
2022/01/31 11:50:13;;;;;;;3.17;1.00;;;26.20;99.90;;;;;;5031489;28;20036;-70
2022/01/31 11:52:47;;;;;;;3.08;1.00;;;26.10;99.90;;;;;;5031174;28;20075;-72
2022/01/31 11:55:18;;;;;;;2.05;0.73;;;26.10;99.90;;;;;;5030489;28;20057;-72
2022/01/31 11:58:08;;;;;;;3.43;0.63;;;26.10;99.90;;;;;;5030126;28;20029;-70
2022/01/31 12:03:52;;;;;;;3.97;0.60;;;26.20;99.90;;;;;;5030652;28;20036;-72
2022/01/31 12:06:27;;;;;;;1.67;0.90;;;26.20;99.90;;;;;;5030746;28;20609;-70
2022/01/31 12:09:07;;;;;;;2.88;0.80;;;26.10;99.90;;;;;;5030425;28;20048;-72
2022/01/31 12:12:05;;;;;;;3.05;0.52;;;26.20;99.90;;;;;;5031088;28;20124;-69
2022/01/31 12:15:02;;;;;;;1.58;0.63;;;26.10;99.90;;;;;;5031400;28;20179;-71
2022/01/31 12:23:52;;;;;;;4.10;0.90;;;26.10;99.90;;;;;;5019266;28;20138;-69
2022/01/31 12:26:51;;;;;;;3.78;1.00;;;26.10;99.90;;;;;;5031358;28;20024;-72
2022/01/31 12:29:24;;;;;;;3.08;1.00;;;26.10;99.90;;;;;;5034454;28;20026;-72
2022/01/31 12:32:29;;;;;;;5.28;2.03;;;26.10;99.90;;;;;;5034216;28;20022;-72
2022/01/31 12:34:59;;;;;;;2.60;0.80;;;26.10;99.90;;;;;;5034290;28;20029;-71
2022/01/31 12:37:50;;;;;;;4.22;1.20;;;26.00;99.90;;;;;;5034182;28;20417;-71
2022/01/31 12:40:20;;;;;;;2.70;0.60;;;26.00;99.90;;;;;;5034237;28;20383;-71
2022/01/31 12:45:31;;;;;;;2.00;0.60;;;26.00;99.90;;;;;;5034440;28;20038;-71
2022/01/31 12:48:15;;;;;;;1.60;0.75;;;25.90;99.90;;;;;;5034105;28;20108;-71
2022/01/31 12:50:44;;;;;;;4.85;1.38;;;26.00;99.90;;;;;;5032948;28;20044;-72
2022/01/31 12:53:44;;;;;;;4.57;0.90;;;26.00;99.90;;;;;;5033661;28;20032;-72
2022/01/31 12:56:25;;;;;;;5.35;1.00;;;26.00;99.90;;;;;;5022407;28;20588;-71
2022/01/31 12:58:54;;;;;;;3.22;0.50;;;26.00;99.90;;;;;;5033394;28;20048;-72
2022/01/31 13:01:25;;;;;;;2.65;0.68;;;26.00;99.90;;;;;;5033516;28;20018;-73
2022/01/31 13:06:46;;;;;;;3.67;0.77;;;25.90;99.90;;;;;;5033594;28;20127;-72
2022/01/31 13:12:07;;;;;;;;;;;25.80;99.90;;;;;;5034486;28;20572;-71
2022/01/31 13:14:53;;;;;;;2.72;0.90;;;25.70;99.90;;;;;;5033973;28;19905;-72
2022/01/31 13:17:45;;;;;;;1.55;0.50;;;25.70;99.90;;;;;;5033446;28;20049;-72
2022/01/31 13:20:31;;;;;;;2.10;0.68;;;25.60;99.90;;;;;;5033596;28;20018;-72
2022/01/31 13:22:59;;;;;;;2.80;0.70;;;25.60;99.90;;;;;;5033935;28;20352;-71
2022/01/31 13:25:27;;;;;;;1.90;0.77;;;25.60;99.90;;;;;;5033460;28;20076;-72
2022/01/31 13:27:55;;;;;;;4.35;0.77;;;25.60;99.90;;;;;;5032216;28;20036;-70
2022/01/31 13:30:27;;;;;;;1.95;0.70;;;25.60;99.90;;;;;;5033451;28;20108;-69
2022/01/31 13:32:55;;;;;;;4.07;1.35;;;25.60;99.90;;;;;;5033447;28;20077;-72
2022/01/31 13:35:28;;;;;;;1.58;0.80;;;25.60;99.90;;;;;;5032176;28;20021;-69
2022/01/31 13:38:01;;;;;;;1.98;0.60;;;25.50;99.90;;;;;;5032492;28;20021;-70
2022/01/31 13:40:36;;;;;;;3.20;0.90;;;25.50;99.90;;;;;;5033148;28;20029;-69
2022/01/31 13:43:25;;;;;;;3.55;0.70;;;25.40;99.90;;;;;;5032915;28;20038;-72
2022/01/31 13:46:00;;;;;;;2.92;0.60;;;25.40;99.90;;;;;;5033036;28;20025;-69
2022/01/31 13:48:53;;;;;;;1.70;0.77;;;25.40;99.90;;;;;;5033192;28;20018;-69
2022/01/31 13:54:22;;;;;;;3.13;0.80;;;25.40;99.90;;;;;;5033247;28;19912;-70
2022/01/31 13:56:57;;;;;;;2.22;0.88;;;25.40;99.90;;;;;;5033103;28;20037;-70